METAR Data
IDs: Format: Raw Decoded Include TAF

Data at: 0631 UTC 03 Jul 2022

METAR for:KDLS (The Dalles Muni, OR, US)
Text:KDLS 030553Z AUTO 30010G19KT 10SM FEW110 20/11 A2981 RMK AO2 PK WND 29026/0501 SLP092 T02000106 10244 20200 50012
Temperature: 20.0°C ( 68°F)
Dewpoint: 10.6°C ( 51°F) [RH = 55%]
Pressure (altimeter):29.81 inches Hg (1009.6 mb) [Sea level pressure: 1009.2 mb]
Winds:from the WNW (300 degrees) at 12 MPH (10 knots; 5.1 m/s) gusting to 22 MPH (19 knots; 9.8 m/s)
Visibility:10 or more sm (16+ km)
Ceiling:at least 12,000 feet AGL
Clouds: few clouds at 11000 feet AGL
QC Flag:automated observation with no human augmentation